Nathalie — OJLP — position and weather

sailwx.info

Track history (hours):
 
Tides and Currents Weather Stations Pressure Air Temp Water Temp Dewpoint Dewpoint Depression Visibility Wind Speed Wind Dir Waves Ship Positions

Nathalie

Last reported at 2018-Feb-24 10:06 UTC. Time now 2018-Feb-24 18:21 UTC.
Position N 55°05' E 014°04'.

Length 64 m; draft 3.5 m.

Type: Cargo ship. MMSI: 230987660.

Date/timePositionNaut miles runAvg speedWind from/ knotsBaromVisibWave heightAir tempDewpointWater temp
2018-Feb-24 10:06N 55°05' E 014°04'2 8.5
2018-Feb-24 09:55N 55°07' E 014°06'5 8.7
2018-Feb-24 09:23N 55°10' E 014°11'6 8.5
2018-Feb-24 08:38N 55°15' E 014°18'1 8.3
2018-Feb-24 08:28N 55°16' E 014°20'8 8.3
2018-Feb-24 07:31N 55°22' E 014°28'1 8.3
2018-Feb-24 07:24N 55°23' E 014°30'4 8.5
2018-Feb-24 06:56N 55°26' E 014°34'5 8.4
2018-Feb-24 06:18N 55°30' E 014°41'6 8.6
2018-Feb-24 05:40N 55°33' E 014°49'2 8.5
2018-Feb-24 05:26N 55°34' E 014°52'7 8.5
2018-Feb-24 04:35N 55°38' E 015°02'1 8.9
2018-Feb-24 04:28N 55°39' E 015°04'4 8.8
2018-Feb-24 04:00N 55°41' E 015°10'4 8.6
2018-Feb-24 03:30N 55°43' E 015°16'4 8.9
2018-Feb-24 03:00N 55°46' E 015°22'4 8.9
2018-Feb-24 02:30N 55°49' E 015°28'4 8.7
2018-Feb-24 02:00N 55°51' E 015°35'4 8.8
2018-Feb-24 01:30N 55°54' E 015°41'4 8.7
2018-Feb-24 01:01N 55°57' E 015°47'4 8.7
2018-Feb-24 00:30N 56°00' E 015°52'4 8.9
2018-Feb-24 00:00N 56°04' E 015°56'5 9.1
2018-Feb-23 23:30N 56°08' E 016°01'5 9.3
2018-Feb-23 23:00N 56°12' E 016°05'5 9.2
2018-Feb-23 22:30N 56°16' E 016°08'5 9.2
2018-Feb-23 22:00N 56°20' E 016°11'5 9.2
2018-Feb-23 21:30N 56°25' E 016°13'5 9.3
2018-Feb-23 21:00N 56°29' E 016°16'5 9.3
2018-Feb-23 20:30N 56°33' E 016°19'39 8.7
2018-Feb-23 16:05N 57°09' E 016°48'1 9.0
2018-Feb-23 15:58N 57°10' E 016°49'198 9.2
2018-Feb-22 18:24N 59°36' E 021°04'4 9.3
2018-Feb-22 18:00N 59°38' E 021°10'5 9.4
2018-Feb-22 17:30N 59°41' E 021°17'4 8.7
2018-Feb-22 17:00N 59°45' E 021°20'4 8.6
2018-Feb-22 16:30N 59°49' E 021°21'4 9.0
2018-Feb-22 16:00N 59°52' E 021°28'5 9.3
2018-Feb-22 15:30N 59°55' E 021°36'5 9.1
2018-Feb-22 14:59N 59°58' E 021°42'4 9.1
2018-Feb-22 14:30N 60°03' E 021°41'4 8.6
2018-Feb-22 14:00N 60°07' E 021°41'33 0.7
2018-Feb-20 11:23N 59°54' E 022°41'3 7.4
2018-Feb-20 11:00N 59°53' E 022°47'3 5.9
2018-Feb-20 10:30N 59°52' E 022°52'3 6.9
2018-Feb-20 10:00N 59°48' E 022°52'5 9.4
2018-Feb-20 09:30N 59°46' E 023°00'5 9.9
2018-Feb-20 09:00N 59°43' E 023°08'5 9.9
2018-Feb-20 08:30N 59°41' E 023°17'510.3
2018-Feb-20 08:00N 59°40' E 023°27'510.1
2018-Feb-20 07:30N 59°38' E 023°36'510.1
2018-Feb-20 07:00N 59°36' E 023°45'6 9.9
2018-Feb-20 06:27N 59°34' E 023°56'8 9.9
2018-Feb-20 05:41N 59°32' E 024°10'210.0
2018-Feb-20 05:30N 59°32' E 024°13'510.2
2018-Feb-20 05:00N 59°30' E 024°23'510.2
2018-Feb-20 04:31N 59°30' E 024°33'5 9.1
2018-Feb-20 04:00N 59°27' E 024°40'0 0.1
2018-Feb-20 03:30N 59°27' E 024°40'0 0.0
2018-Feb-20 03:00N 59°27' E 024°40'0 0.0
2018-Feb-20 02:30N 59°27' E 024°40'0 0.0
2018-Feb-20 02:00N 59°27' E 024°40'0 0.0
2018-Feb-20 01:30N 59°27' E 024°40'0 0.0
2018-Feb-20 01:00N 59°27' E 024°40'0 0.0
2018-Feb-20 00:30N 59°27' E 024°40'0 0.0
2018-Feb-20 00:00N 59°27' E 024°40'0 0.0
2018-Feb-19 23:30N 59°27' E 024°40'0 0.0
2018-Feb-19 23:00N 59°27' E 024°40'0 0.0
2018-Feb-19 22:30N 59°27' E 024°40'0 0.0
2018-Feb-19 22:00N 59°27' E 024°40'0 0.0
2018-Feb-19 21:30N 59°27' E 024°40'0 0.0
2018-Feb-19 21:00N 59°27' E 024°40'0 0.0
2018-Feb-19 20:30N 59°27' E 024°40'0 0.0
2018-Feb-19 20:00N 59°27' E 024°40'0 0.0
2018-Feb-19 19:30N 59°27' E 024°40'0 0.0
2018-Feb-19 19:00N 59°27' E 024°40'0 0.0
2018-Feb-19 18:30N 59°27' E 024°40'0 0.0
2018-Feb-19 18:00N 59°27' E 024°40'0 0.0
2018-Feb-19 17:30N 59°27' E 024°40'0 0.0
2018-Feb-19 17:00N 59°27' E 024°40'0 0.0
2018-Feb-19 16:30N 59°27' E 024°40'0 0.0
2018-Feb-19 16:00N 59°27' E 024°40'0 0.0
2018-Feb-19 15:30N 59°27' E 024°40'0 0.0
2018-Feb-19 15:00N 59°27' E 024°40'0 0.0
2018-Feb-19 14:30N 59°27' E 024°40'0 0.0
2018-Feb-19 13:57N 59°27' E 024°40'0 0.0
2018-Feb-19 13:30N 59°27' E 024°40'0 0.0
2018-Feb-19 12:58N 59°27' E 024°40'0 0.0
2018-Feb-19 12:30N 59°27' E 024°40'0 0.0
2018-Feb-19 12:00N 59°27' E 024°40'0 0.0
2018-Feb-19 11:30N 59°27' E 024°40'0 0.0
2018-Feb-19 11:00N 59°27' E 024°40'0 0.0
2018-Feb-19 10:30N 59°27' E 024°40'0 0.0
2018-Feb-19 10:00N 59°27' E 024°40'0 0.0
2018-Feb-19 09:30N 59°27' E 024°40'0 0.0
2018-Feb-19 09:00N 59°27' E 024°40'0 0.0
2018-Feb-19 08:30N 59°27' E 024°40'0 0.0
2018-Feb-19 08:00N 59°27' E 024°40'0 0.0
2018-Feb-19 07:30N 59°27' E 024°40'0 0.0
2018-Feb-19 07:00N 59°27' E 024°40'0 0.0
2018-Feb-19 06:30N 59°27' E 024°40'0 0.0
2018-Feb-19 06:00N 59°27' E 024°40'0 0.0
2018-Feb-19 05:30N 59°27' E 024°40'0 0.0
2018-Feb-19 05:00N 59°27' E 024°40'0 0.0
2018-Feb-19 04:30N 59°27' E 024°40'0 0.0
2018-Feb-19 04:00N 59°27' E 024°40'0 0.0
2018-Feb-19 03:30N 59°27' E 024°40'0 0.0
2018-Feb-19 03:00N 59°27' E 024°40'0 0.0
2018-Feb-19 02:30N 59°27' E 024°40'0 0.0
2018-Feb-19 02:00N 59°27' E 024°40'0 0.0
2018-Feb-19 01:30N 59°27' E 024°40'0 0.0
2018-Feb-19 01:00N 59°27' E 024°40'0 0.0
2018-Feb-19 00:30N 59°27' E 024°40'0 0.0
2018-Feb-19 00:00N 59°27' E 024°40'0 0.0
2018-Feb-18 23:30N 59°27' E 024°40'0 0.0
2018-Feb-18 23:00N 59°27' E 024°40'0 0.0
2018-Feb-18 22:30N 59°27' E 024°40'0 0.0
2018-Feb-18 22:00N 59°27' E 024°40'0 0.0
2018-Feb-18 21:30N 59°27' E 024°40'0 0.0
2018-Feb-18 21:00N 59°27' E 024°40'0 0.0
2018-Feb-18 20:30N 59°27' E 024°40'0 0.0
2018-Feb-18 20:00N 59°27' E 024°40'0 0.0
2018-Feb-18 19:30N 59°27' E 024°40'0 0.0
2018-Feb-18 18:59N 59°27' E 024°40'0 0.0
2018-Feb-18 18:29N 59°27' E 024°40'0 0.0
2018-Feb-18 17:59N 59°27' E 024°40'0 0.0
2018-Feb-18 17:29N 59°27' E 024°40'0 0.0
2018-Feb-18 16:59N 59°27' E 024°40'0 0.0
2018-Feb-18 16:29N 59°27' E 024°40'0 0.0
2018-Feb-18 15:59N 59°27' E 024°40'0 0.0
2018-Feb-18 15:29N 59°27' E 024°40'0 0.0
2018-Feb-18 14:59N 59°27' E 024°40'0 0.0
2018-Feb-18 14:29N 59°27' E 024°40'0 0.0
2018-Feb-18 13:59N 59°27' E 024°40'0 0.0
2018-Feb-18 13:29N 59°27' E 024°40'0 0.0
2018-Feb-18 12:59N 59°27' E 024°40'0 0.0
2018-Feb-18 12:29N 59°27' E 024°40'0 0.0
2018-Feb-18 11:59N 59°27' E 024°40'0 0.0
2018-Feb-18 11:29N 59°27' E 024°40'0 0.0
2018-Feb-18 10:59N 59°27' E 024°40'0 0.0
2018-Feb-18 10:29N 59°27' E 024°40'0 0.0
2018-Feb-18 10:00N 59°27' E 024°40'0 0.0
2018-Feb-18 09:29N 59°27' E 024°40'0 0.0
2018-Feb-18 08:59N 59°27' E 024°40'0 0.0
2018-Feb-18 08:29N 59°27' E 024°40'0 0.0
2018-Feb-18 07:59N 59°27' E 024°40'0 0.0
2018-Feb-18 07:29N 59°27' E 024°40'0 0.0
2018-Feb-18 06:59N 59°27' E 024°40'0 0.0
2018-Feb-18 06:29N 59°27' E 024°40'0 0.0
2018-Feb-18 05:59N 59°27' E 024°40'0 0.0
2018-Feb-18 05:29N 59°27' E 024°40'0 0.0
2018-Feb-18 04:59N 59°27' E 024°40'0 0.0
2018-Feb-18 04:29N 59°27' E 024°40'0 0.0
2018-Feb-18 03:59N 59°27' E 024°40'0 0.0
2018-Feb-18 03:29N 59°27' E 024°40'0 0.0
2018-Feb-18 02:59N 59°27' E 024°40'0 0.0
2018-Feb-18 02:29N 59°27' E 024°40'0 0.0
2018-Feb-18 01:59N 59°27' E 024°40'0 0.0
2018-Feb-18 01:29N 59°27' E 024°40'0 0.0
2018-Feb-18 00:59N 59°27' E 024°40'0 0.0
2018-Feb-18 00:29N 59°27' E 024°40'0 0.0
2018-Feb-17 23:59N 59°27' E 024°40'0 0.0
2018-Feb-17 23:29N 59°27' E 024°40'0 0.0
2018-Feb-17 22:59N 59°27' E 024°40'0 0.0
2018-Feb-17 22:29N 59°27' E 024°40'0 0.0
2018-Feb-17 21:59N 59°27' E 024°40'0 0.0
2018-Feb-17 21:31N 59°27' E 024°40'0 0.0
2018-Feb-17 21:00N 59°27' E 024°40'0 0.0
2018-Feb-17 20:29N 59°27' E 024°40'0 0.0
2018-Feb-17 19:59N 59°27' E 024°40'0 0.0
2018-Feb-17 19:29N 59°27' E 024°40'0 0.0
2018-Feb-17 18:59N 59°27' E 024°40'0 0.0
2018-Feb-17 18:29N 59°27' E 024°40'0 0.0
2018-Feb-17 17:59N 59°27' E 024°40'0 0.0
2018-Feb-17 17:29N 59°27' E 024°40'0 0.0
2018-Feb-17 16:59N 59°27' E 024°40'0 0.0
2018-Feb-17 16:29N 59°27' E 024°40'0 0.0
2018-Feb-17 15:59N 59°27' E 024°40'0 0.0
2018-Feb-17 15:29N 59°27' E 024°40'0 0.0
2018-Feb-17 14:59N 59°27' E 024°40'0 0.0
2018-Feb-17 14:29N 59°27' E 024°40'0 0.0
2018-Feb-17 13:59N 59°27' E 024°40'0 0.0
2018-Feb-17 13:29N 59°27' E 024°40'0 0.0
2018-Feb-17 12:59N 59°27' E 024°40'0 0.0
2018-Feb-17 12:29N 59°27' E 024°40'0 0.0
2018-Feb-17 11:59N 59°27' E 024°40'0 0.0
2018-Feb-17 11:29N 59°27' E 024°40'0 0.0
2018-Feb-17 10:59N 59°27' E 024°40'0 0.0
2018-Feb-17 10:29N 59°27' E 024°40'0 0.0
2018-Feb-17 09:59N 59°27' E 024°40'0 0.0
2018-Feb-17 09:29N 59°27' E 024°40'0 0.0
2018-Feb-17 08:59N 59°27' E 024°40'0 0.0
2018-Feb-17 08:28N 59°27' E 024°40'0 0.0
2018-Feb-17 07:58N 59°27' E 024°40'0 0.0
2018-Feb-17 07:28N 59°27' E 024°40'0 0.0
2018-Feb-17 06:58N 59°27' E 024°40'0 0.0
2018-Feb-17 06:28N 59°27' E 024°40'0 0.0
2018-Feb-17 05:58N 59°27' E 024°40'0 0.0
2018-Feb-17 05:28N 59°27' E 024°40'0 0.0
2018-Feb-17 04:58N 59°27' E 024°40'0 0.0
2018-Feb-17 04:25N 59°27' E 024°40'0 0.0
2018-Feb-17 03:58N 59°27' E 024°40'0 0.0
2018-Feb-17 03:28N 59°27' E 024°40'0 0.0
2018-Feb-17 02:58N 59°27' E 024°40'0 0.0
2018-Feb-17 02:28N 59°27' E 024°40'0 0.0
2018-Feb-17 01:58N 59°27' E 024°40'0 0.0
2018-Feb-17 01:28N 59°27' E 024°40'0 0.0
2018-Feb-17 00:58N 59°27' E 024°40'0 0.0
2018-Feb-17 00:28N 59°27' E 024°40'0 0.0
2018-Feb-16 23:58N 59°27' E 024°40'0 0.0
2018-Feb-16 23:30N 59°27' E 024°40'0 0.0
2018-Feb-16 22:58N 59°27' E 024°40'0 0.0
2018-Feb-16 22:28N 59°27' E 024°40'0 0.0
2018-Feb-16 21:59N 59°27' E 024°40'0 0.0
2018-Feb-16 21:29N 59°27' E 024°40'0 0.0
2018-Feb-16 21:00N 59°27' E 024°40'0 0.0
2018-Feb-16 20:29N 59°27' E 024°40'0 0.0
2018-Feb-16 19:58N 59°27' E 024°40'0 0.0
2018-Feb-16 19:28N 59°27' E 024°40'0 0.6
2018-Feb-16 18:58N 59°27' E 024°40'0 0.0
2018-Feb-16 18:28N 59°27' E 024°40'0 0.0
2018-Feb-16 17:58N 59°27' E 024°40'0 0.0
2018-Feb-16 17:28N 59°27' E 024°40'0 0.0
2018-Feb-16 16:58N 59°27' E 024°40'0 0.0
2018-Feb-16 16:28N 59°27' E 024°40'0 0.0
2018-Feb-16 15:58N 59°27' E 024°40'0 0.0
2018-Feb-16 15:28N 59°27' E 024°40'0 0.0
2018-Feb-16 14:58N 59°27' E 024°40'0 0.0
2018-Feb-16 14:29N 59°27' E 024°40'0 0.0
2018-Feb-16 13:59N 59°27' E 024°40'0 0.0
2018-Feb-16 13:28N 59°27' E 024°40'0 0.0
2018-Feb-16 12:58N 59°27' E 024°40'0 0.0
2018-Feb-16 12:28N 59°27' E 024°40'0 0.0
2018-Feb-16 12:01N 59°27' E 024°40'0 0.0
2018-Feb-16 11:31N 59°27' E 024°40'0 0.0
2018-Feb-16 11:01N 59°27' E 024°40'0 0.0
2018-Feb-16 10:30N 59°27' E 024°40'0 0.0
2018-Feb-16 10:00N 59°27' E 024°40'0 0.0
2018-Feb-16 09:30N 59°27' E 024°40'0 0.0
2018-Feb-16 09:00N 59°27' E 024°40'0 0.0
2018-Feb-16 08:30N 59°27' E 024°40'0 0.0
2018-Feb-16 08:00N 59°27' E 024°40'0 0.0
2018-Feb-16 07:28N 59°27' E 024°40'0 0.0
2018-Feb-16 07:00N 59°27' E 024°40'0 0.0
2018-Feb-16 06:30N 59°27' E 024°40'0 0.0
2018-Feb-16 06:00N 59°27' E 024°40'0 0.0
2018-Feb-16 05:30N 59°27' E 024°40'0 0.0
2018-Feb-16 04:54N 59°27' E 024°40'0 0.0
2018-Feb-16 04:30N 59°27' E 024°40'0 0.0
2018-Feb-16 04:00N 59°27' E 024°40'0 0.0
2018-Feb-16 03:30N 59°27' E 024°40'0 0.0
2018-Feb-16 02:57N 59°27' E 024°40'0 0.0
2018-Feb-16 02:30N 59°27' E 024°40'0 0.0
2018-Feb-16 02:00N 59°27' E 024°40'0 0.0
2018-Feb-16 01:30N 59°27' E 024°40'0 0.0
2018-Feb-16 01:00N 59°27' E 024°40'0 0.0
2018-Feb-16 00:30N 59°27' E 024°40'0 0.0
2018-Feb-16 00:00N 59°27' E 024°40'0 0.0
2018-Feb-15 23:28N 59°27' E 024°40'0 0.0
2018-Feb-15 22:59N 59°27' E 024°40'0 0.0
2018-Feb-15 22:30N 59°27' E 024°40'0 0.0
2018-Feb-15 22:00N 59°27' E 024°40'0 0.0
2018-Feb-15 21:30N 59°27' E 024°40'0 0.0
2018-Feb-15 21:00N 59°27' E 024°40'0 0.0
2018-Feb-15 20:30N 59°27' E 024°40'0 0.0
2018-Feb-15 20:00N 59°27' E 024°40'0 0.0
2018-Feb-15 19:30N 59°27' E 024°40'0 0.0
2018-Feb-15 19:00N 59°27' E 024°40'0 0.0
2018-Feb-15 18:30N 59°27' E 024°40'0 0.0
2018-Feb-15 18:00N 59°27' E 024°40'0 0.0
2018-Feb-15 17:30N 59°27' E 024°40'0 0.0
2018-Feb-15 17:00N 59°27' E 024°40'0 0.0
2018-Feb-15 16:30N 59°27' E 024°40'0 0.0
2018-Feb-15 16:00N 59°27' E 024°40'0 0.0
2018-Feb-15 15:30N 59°27' E 024°40'0 0.0
2018-Feb-15 15:00N 59°27' E 024°40'0 0.0
2018-Feb-15 14:30N 59°27' E 024°40'2 3.4
2018-Feb-15 14:00N 59°28' E 024°37'4 7.7
2018-Feb-15 13:30N 59°30' E 024°31'4 8.0
2018-Feb-15 13:00N 59°30' E 024°23'4 8.0
2018-Feb-15 12:30N 59°30' E 024°15'16 7.7
2018-Feb-15 10:28N 59°36' E 023°46'4 7.8
2018-Feb-15 10:00N 59°37' E 023°39'4 8.1
2018-Feb-15 09:30N 59°38' E 023°32'4 8.0
2018-Feb-15 09:00N 59°40' E 023°24'4 8.0
2018-Feb-15 08:30N 59°42' E 023°17'4 7.9
2018-Feb-15 07:57N 59°43' E 023°09'7 7.7
2018-Feb-15 07:06N 59°47' E 022°58'96 6.5
2018-Feb-14 16:22N 61°01' E 020°55'3 8.1
2018-Feb-14 16:00N 61°03' E 020°56'4 8.1
2018-Feb-14 15:30N 61°07' E 020°58'4 8.6
2018-Feb-14 15:00N 61°11' E 021°01'  
Track history (hours):
 
Tides and Currents Weather Stations Pressure Air Temp Water Temp Dewpoint Dewpoint Depression Visibility Wind Speed Wind Dir Waves Ship Positions

Nathalie

Last reported at 2018-Feb-24 10:06 UTC. Time now 2018-Feb-24 18:21 UTC.
Position N 55°05' E 014°04'.

Length 64 m; draft 3.5 m.

Type: Cargo ship. MMSI: 230987660.

Date/timePositionNaut miles runAvg speedWind from/ knotsBaromVisibWave heightAir tempDewpointWater temp
2018-Feb-24 10:06N 55°05' E 014°04'2 8.5
2018-Feb-24 09:55N 55°07' E 014°06'5 8.7
2018-Feb-24 09:23N 55°10' E 014°11'6 8.5
2018-Feb-24 08:38N 55°15' E 014°18'1 8.3
2018-Feb-24 08:28N 55°16' E 014°20'8 8.3
2018-Feb-24 07:31N 55°22' E 014°28'1 8.3
2018-Feb-24 07:24N 55°23' E 014°30'4 8.5
2018-Feb-24 06:56N 55°26' E 014°34'5 8.4
2018-Feb-24 06:18N 55°30' E 014°41'6 8.6
2018-Feb-24 05:40N 55°33' E 014°49'2 8.5
2018-Feb-24 05:26N 55°34' E 014°52'7 8.5
2018-Feb-24 04:35N 55°38' E 015°02'1 8.9
2018-Feb-24 04:28N 55°39' E 015°04'4 8.8
2018-Feb-24 04:00N 55°41' E 015°10'4 8.6
2018-Feb-24 03:30N 55°43' E 015°16'4 8.9
2018-Feb-24 03:00N 55°46' E 015°22'4 8.9
2018-Feb-24 02:30N 55°49' E 015°28'4 8.7
2018-Feb-24 02:00N 55°51' E 015°35'4 8.8
2018-Feb-24 01:30N 55°54' E 015°41'4 8.7
2018-Feb-24 01:01N 55°57' E 015°47'4 8.7
2018-Feb-24 00:30N 56°00' E 015°52'4 8.9
2018-Feb-24 00:00N 56°04' E 015°56'5 9.1
2018-Feb-23 23:30N 56°08' E 016°01'5 9.3
2018-Feb-23 23:00N 56°12' E 016°05'5 9.2
2018-Feb-23 22:30N 56°16' E 016°08'5 9.2
2018-Feb-23 22:00N 56°20' E 016°11'5 9.2
2018-Feb-23 21:30N 56°25' E 016°13'5 9.3
2018-Feb-23 21:00N 56°29' E 016°16'5 9.3
2018-Feb-23 20:30N 56°33' E 016°19'39 8.7
2018-Feb-23 16:05N 57°09' E 016°48'1 9.0
2018-Feb-23 15:58N 57°10' E 016°49'198 9.2
2018-Feb-22 18:24N 59°36' E 021°04'4 9.3
2018-Feb-22 18:00N 59°38' E 021°10'5 9.4
2018-Feb-22 17:30N 59°41' E 021°17'4 8.7
2018-Feb-22 17:00N 59°45' E 021°20'4 8.6
2018-Feb-22 16:30N 59°49' E 021°21'4 9.0
2018-Feb-22 16:00N 59°52' E 021°28'5 9.3
2018-Feb-22 15:30N 59°55' E 021°36'5 9.1
2018-Feb-22 14:59N 59°58' E 021°42'4 9.1
2018-Feb-22 14:30N 60°03' E 021°41'4 8.6
2018-Feb-22 14:00N 60°07' E 021°41'33 0.7
2018-Feb-20 11:23N 59°54' E 022°41'3 7.4
2018-Feb-20 11:00N 59°53' E 022°47'3 5.9
2018-Feb-20 10:30N 59°52' E 022°52'3 6.9
2018-Feb-20 10:00N 59°48' E 022°52'5 9.4
2018-Feb-20 09:30N 59°46' E 023°00'5 9.9
2018-Feb-20 09:00N 59°43' E 023°08'5 9.9
2018-Feb-20 08:30N 59°41' E 023°17'510.3
2018-Feb-20 08:00N 59°40' E 023°27'510.1
2018-Feb-20 07:30N 59°38' E 023°36'510.1
2018-Feb-20 07:00N 59°36' E 023°45'6 9.9
2018-Feb-20 06:27N 59°34' E 023°56'8 9.9
2018-Feb-20 05:41N 59°32' E 024°10'210.0
2018-Feb-20 05:30N 59°32' E 024°13'510.2
2018-Feb-20 05:00N 59°30' E 024°23'510.2
2018-Feb-20 04:31N 59°30' E 024°33'5 9.1
2018-Feb-20 04:00N 59°27' E 024°40'0 0.1
2018-Feb-20 03:30N 59°27' E 024°40'0 0.0
2018-Feb-20 03:00N 59°27' E 024°40'0 0.0
2018-Feb-20 02:30N 59°27' E 024°40'0 0.0
2018-Feb-20 02:00N 59°27' E 024°40'0 0.0
2018-Feb-20 01:30N 59°27' E 024°40'0 0.0
2018-Feb-20 01:00N 59°27' E 024°40'0 0.0
2018-Feb-20 00:30N 59°27' E 024°40'0 0.0
2018-Feb-20 00:00N 59°27' E 024°40'0 0.0
2018-Feb-19 23:30N 59°27' E 024°40'0 0.0
2018-Feb-19 23:00N 59°27' E 024°40'0 0.0
2018-Feb-19 22:30N 59°27' E 024°40'0 0.0
2018-Feb-19 22:00N 59°27' E 024°40'0 0.0
2018-Feb-19 21:30N 59°27' E 024°40'0 0.0
2018-Feb-19 21:00N 59°27' E 024°40'0 0.0
2018-Feb-19 20:30N 59°27' E 024°40'0 0.0
2018-Feb-19 20:00N 59°27' E 024°40'0 0.0
2018-Feb-19 19:30N 59°27' E 024°40'0 0.0
2018-Feb-19 19:00N 59°27' E 024°40'0 0.0
2018-Feb-19 18:30N 59°27' E 024°40'0 0.0
2018-Feb-19 18:00N 59°27' E 024°40'0 0.0
2018-Feb-19 17:30N 59°27' E 024°40'0 0.0
2018-Feb-19 17:00N 59°27' E 024°40'0 0.0
2018-Feb-19 16:30N 59°27' E 024°40'0 0.0
2018-Feb-19 16:00N 59°27' E 024°40'0 0.0
2018-Feb-19 15:30N 59°27' E 024°40'0 0.0
2018-Feb-19 15:00N 59°27' E 024°40'0 0.0
2018-Feb-19 14:30N 59°27' E 024°40'0 0.0
2018-Feb-19 13:57N 59°27' E 024°40'0 0.0
2018-Feb-19 13:30N 59°27' E 024°40'0 0.0
2018-Feb-19 12:58N 59°27' E 024°40'0 0.0
2018-Feb-19 12:30N 59°27' E 024°40'0 0.0
2018-Feb-19 12:00N 59°27' E 024°40'0 0.0
2018-Feb-19 11:30N 59°27' E 024°40'0 0.0
2018-Feb-19 11:00N 59°27' E 024°40'0 0.0
2018-Feb-19 10:30N 59°27' E 024°40'0 0.0
2018-Feb-19 10:00N 59°27' E 024°40'0 0.0
2018-Feb-19 09:30N 59°27' E 024°40'0 0.0
2018-Feb-19 09:00N 59°27' E 024°40'0 0.0
2018-Feb-19 08:30N 59°27' E 024°40'0 0.0
2018-Feb-19 08:00N 59°27' E 024°40'0 0.0
2018-Feb-19 07:30N 59°27' E 024°40'0 0.0
2018-Feb-19 07:00N 59°27' E 024°40'0 0.0
2018-Feb-19 06:30N 59°27' E 024°40'0 0.0
2018-Feb-19 06:00N 59°27' E 024°40'0 0.0
2018-Feb-19 05:30N 59°27' E 024°40'0 0.0
2018-Feb-19 05:00N 59°27' E 024°40'0 0.0
2018-Feb-19 04:30N 59°27' E 024°40'0 0.0
2018-Feb-19 04:00N 59°27' E 024°40'0 0.0
2018-Feb-19 03:30N 59°27' E 024°40'0 0.0
2018-Feb-19 03:00N 59°27' E 024°40'0 0.0
2018-Feb-19 02:30N 59°27' E 024°40'0 0.0
2018-Feb-19 02:00N 59°27' E 024°40'0 0.0
2018-Feb-19 01:30N 59°27' E 024°40'0 0.0
2018-Feb-19 01:00N 59°27' E 024°40'0 0.0
2018-Feb-19 00:30N 59°27' E 024°40'0 0.0
2018-Feb-19 00:00N 59°27' E 024°40'0 0.0
2018-Feb-18 23:30N 59°27' E 024°40'0 0.0
2018-Feb-18 23:00N 59°27' E 024°40'0 0.0
2018-Feb-18 22:30N 59°27' E 024°40'0 0.0
2018-Feb-18 22:00N 59°27' E 024°40'0 0.0
2018-Feb-18 21:30N 59°27' E 024°40'0 0.0
2018-Feb-18 21:00N 59°27' E 024°40'0 0.0
2018-Feb-18 20:30N 59°27' E 024°40'0 0.0
2018-Feb-18 20:00N 59°27' E 024°40'0 0.0
2018-Feb-18 19:30N 59°27' E 024°40'0 0.0
2018-Feb-18 18:59N 59°27' E 024°40'0 0.0
2018-Feb-18 18:29N 59°27' E 024°40'0 0.0
2018-Feb-18 17:59N 59°27' E 024°40'0 0.0
2018-Feb-18 17:29N 59°27' E 024°40'0 0.0
2018-Feb-18 16:59N 59°27' E 024°40'0 0.0
2018-Feb-18 16:29N 59°27' E 024°40'0 0.0
2018-Feb-18 15:59N 59°27' E 024°40'0 0.0
2018-Feb-18 15:29N 59°27' E 024°40'0 0.0
2018-Feb-18 14:59N 59°27' E 024°40'0 0.0
2018-Feb-18 14:29N 59°27' E 024°40'0 0.0
2018-Feb-18 13:59N 59°27' E 024°40'0 0.0
2018-Feb-18 13:29N 59°27' E 024°40'0 0.0
2018-Feb-18 12:59N 59°27' E 024°40'0 0.0
2018-Feb-18 12:29N 59°27' E 024°40'0 0.0
2018-Feb-18 11:59N 59°27' E 024°40'0 0.0
2018-Feb-18 11:29N 59°27' E 024°40'0 0.0
2018-Feb-18 10:59N 59°27' E 024°40'0 0.0
2018-Feb-18 10:29N 59°27' E 024°40'0 0.0
2018-Feb-18 10:00N 59°27' E 024°40'0 0.0
2018-Feb-18 09:29N 59°27' E 024°40'0 0.0
2018-Feb-18 08:59N 59°27' E 024°40'0 0.0
2018-Feb-18 08:29N 59°27' E 024°40'0 0.0
2018-Feb-18 07:59N 59°27' E 024°40'0 0.0
2018-Feb-18 07:29N 59°27' E 024°40'0 0.0
2018-Feb-18 06:59N 59°27' E 024°40'0 0.0
2018-Feb-18 06:29N 59°27' E 024°40'0 0.0
2018-Feb-18 05:59N 59°27' E 024°40'0 0.0
2018-Feb-18 05:29N 59°27' E 024°40'0 0.0
2018-Feb-18 04:59N 59°27' E 024°40'0 0.0
2018-Feb-18 04:29N 59°27' E 024°40'0 0.0
2018-Feb-18 03:59N 59°27' E 024°40'0 0.0
2018-Feb-18 03:29N 59°27' E 024°40'0 0.0
2018-Feb-18 02:59N 59°27' E 024°40'0 0.0
2018-Feb-18 02:29N 59°27' E 024°40'0 0.0
2018-Feb-18 01:59N 59°27' E 024°40'0 0.0
2018-Feb-18 01:29N 59°27' E 024°40'0 0.0
2018-Feb-18 00:59N 59°27' E 024°40'0 0.0
2018-Feb-18 00:29N 59°27' E 024°40'0 0.0
2018-Feb-17 23:59N 59°27' E 024°40'0 0.0
2018-Feb-17 23:29N 59°27' E 024°40'0 0.0
2018-Feb-17 22:59N 59°27' E 024°40'0 0.0
2018-Feb-17 22:29N 59°27' E 024°40'0 0.0
2018-Feb-17 21:59N 59°27' E 024°40'0 0.0
2018-Feb-17 21:31N 59°27' E 024°40'0 0.0
2018-Feb-17 21:00N 59°27' E 024°40'0 0.0
2018-Feb-17 20:29N 59°27' E 024°40'0 0.0
2018-Feb-17 19:59N 59°27' E 024°40'0 0.0
2018-Feb-17 19:29N 59°27' E 024°40'0 0.0
2018-Feb-17 18:59N 59°27' E 024°40'0 0.0
2018-Feb-17 18:29N 59°27' E 024°40'0 0.0
2018-Feb-17 17:59N 59°27' E 024°40'0 0.0
2018-Feb-17 17:29N 59°27' E 024°40'0 0.0
2018-Feb-17 16:59N 59°27' E 024°40'0 0.0
2018-Feb-17 16:29N 59°27' E 024°40'0 0.0
2018-Feb-17 15:59N 59°27' E 024°40'0 0.0
2018-Feb-17 15:29N 59°27' E 024°40'0 0.0
2018-Feb-17 14:59N 59°27' E 024°40'0 0.0
2018-Feb-17 14:29N 59°27' E 024°40'0 0.0
2018-Feb-17 13:59N 59°27' E 024°40'0 0.0
2018-Feb-17 13:29N 59°27' E 024°40'0 0.0
2018-Feb-17 12:59N 59°27' E 024°40'0 0.0
2018-Feb-17 12:29N 59°27' E 024°40'0 0.0
2018-Feb-17 11:59N 59°27' E 024°40'0 0.0
2018-Feb-17 11:29N 59°27' E 024°40'0 0.0
2018-Feb-17 10:59N 59°27' E 024°40'0 0.0
2018-Feb-17 10:29N 59°27' E 024°40'0 0.0
2018-Feb-17 09:59N 59°27' E 024°40'0 0.0
2018-Feb-17 09:29N 59°27' E 024°40'0 0.0
2018-Feb-17 08:59N 59°27' E 024°40'0 0.0
2018-Feb-17 08:28N 59°27' E 024°40'0 0.0
2018-Feb-17 07:58N 59°27' E 024°40'0 0.0
2018-Feb-17 07:28N 59°27' E 024°40'0 0.0
2018-Feb-17 06:58N 59°27' E 024°40'0 0.0
2018-Feb-17 06:28N 59°27' E 024°40'0 0.0
2018-Feb-17 05:58N 59°27' E 024°40'0 0.0
2018-Feb-17 05:28N 59°27' E 024°40'0 0.0
2018-Feb-17 04:58N 59°27' E 024°40'0 0.0
2018-Feb-17 04:25N 59°27' E 024°40'0 0.0
2018-Feb-17 03:58N 59°27' E 024°40'0 0.0
2018-Feb-17 03:28N 59°27' E 024°40'0 0.0
2018-Feb-17 02:58N 59°27' E 024°40'0 0.0
2018-Feb-17 02:28N 59°27' E 024°40'0 0.0
2018-Feb-17 01:58N 59°27' E 024°40'0 0.0
2018-Feb-17 01:28N 59°27' E 024°40'0 0.0
2018-Feb-17 00:58N 59°27' E 024°40'0 0.0
2018-Feb-17 00:28N 59°27' E 024°40'0 0.0
2018-Feb-16 23:58N 59°27' E 024°40'0 0.0
2018-Feb-16 23:30N 59°27' E 024°40'0 0.0
2018-Feb-16 22:58N 59°27' E 024°40'0 0.0
2018-Feb-16 22:28N 59°27' E 024°40'0 0.0
2018-Feb-16 21:59N 59°27' E 024°40'0 0.0
2018-Feb-16 21:29N 59°27' E 024°40'0 0.0
2018-Feb-16 21:00N 59°27' E 024°40'0 0.0
2018-Feb-16 20:29N 59°27' E 024°40'0 0.0
2018-Feb-16 19:58N 59°27' E 024°40'0 0.0
2018-Feb-16 19:28N 59°27' E 024°40'0 0.6
2018-Feb-16 18:58N 59°27' E 024°40'0 0.0
2018-Feb-16 18:28N 59°27' E 024°40'0 0.0
2018-Feb-16 17:58N 59°27' E 024°40'0 0.0
2018-Feb-16 17:28N 59°27' E 024°40'0 0.0
2018-Feb-16 16:58N 59°27' E 024°40'0 0.0
2018-Feb-16 16:28N 59°27' E 024°40'0 0.0
2018-Feb-16 15:58N 59°27' E 024°40'0 0.0
2018-Feb-16 15:28N 59°27' E 024°40'0 0.0
2018-Feb-16 14:58N 59°27' E 024°40'0 0.0
2018-Feb-16 14:29N 59°27' E 024°40'0 0.0
2018-Feb-16 13:59N 59°27' E 024°40'0 0.0
2018-Feb-16 13:28N 59°27' E 024°40'0 0.0
2018-Feb-16 12:58N 59°27' E 024°40'0 0.0
2018-Feb-16 12:28N 59°27' E 024°40'0 0.0
2018-Feb-16 12:01N 59°27' E 024°40'0 0.0
2018-Feb-16 11:31N 59°27' E 024°40'0 0.0
2018-Feb-16 11:01N 59°27' E 024°40'0 0.0
2018-Feb-16 10:30N 59°27' E 024°40'0 0.0
2018-Feb-16 10:00N 59°27' E 024°40'0 0.0
2018-Feb-16 09:30N 59°27' E 024°40'0 0.0
2018-Feb-16 09:00N 59°27' E 024°40'0 0.0
2018-Feb-16 08:30N 59°27' E 024°40'0 0.0
2018-Feb-16 08:00N 59°27' E 024°40'0 0.0
2018-Feb-16 07:28N 59°27' E 024°40'0 0.0
2018-Feb-16 07:00N 59°27' E 024°40'0 0.0
2018-Feb-16 06:30N 59°27' E 024°40'0 0.0
2018-Feb-16 06:00N 59°27' E 024°40'0 0.0
2018-Feb-16 05:30N 59°27' E 024°40'0 0.0
2018-Feb-16 04:54N 59°27' E 024°40'0 0.0
2018-Feb-16 04:30N 59°27' E 024°40'0 0.0
2018-Feb-16 04:00N 59°27' E 024°40'0 0.0
2018-Feb-16 03:30N 59°27' E 024°40'0 0.0
2018-Feb-16 02:57N 59°27' E 024°40'0 0.0
2018-Feb-16 02:30N 59°27' E 024°40'0 0.0
2018-Feb-16 02:00N 59°27' E 024°40'0 0.0
2018-Feb-16 01:30N 59°27' E 024°40'0 0.0
2018-Feb-16 01:00N 59°27' E 024°40'0 0.0
2018-Feb-16 00:30N 59°27' E 024°40'0 0.0
2018-Feb-16 00:00N 59°27' E 024°40'0 0.0
2018-Feb-15 23:28N 59°27' E 024°40'0 0.0
2018-Feb-15 22:59N 59°27' E 024°40'0 0.0
2018-Feb-15 22:30N 59°27' E 024°40'0 0.0
2018-Feb-15 22:00N 59°27' E 024°40'0 0.0
2018-Feb-15 21:30N 59°27' E 024°40'0 0.0
2018-Feb-15 21:00N 59°27' E 024°40'0 0.0
2018-Feb-15 20:30N 59°27' E 024°40'0 0.0
2018-Feb-15 20:00N 59°27' E 024°40'0 0.0
2018-Feb-15 19:30N 59°27' E 024°40'0 0.0
2018-Feb-15 19:00N 59°27' E 024°40'0 0.0
2018-Feb-15 18:30N 59°27' E 024°40'0 0.0
2018-Feb-15 18:00N 59°27' E 024°40'0 0.0
2018-Feb-15 17:30N 59°27' E 024°40'0 0.0
2018-Feb-15 17:00N 59°27' E 024°40'0 0.0
2018-Feb-15 16:30N 59°27' E 024°40'0 0.0
2018-Feb-15 16:00N 59°27' E 024°40'0 0.0
2018-Feb-15 15:30N 59°27' E 024°40'0 0.0
2018-Feb-15 15:00N 59°27' E 024°40'0 0.0
2018-Feb-15 14:30N 59°27' E 024°40'2 3.4
2018-Feb-15 14:00N 59°28' E 024°37'4 7.7
2018-Feb-15 13:30N 59°30' E 024°31'4 8.0
2018-Feb-15 13:00N 59°30' E 024°23'4 8.0
2018-Feb-15 12:30N 59°30' E 024°15'16 7.7
2018-Feb-15 10:28N 59°36' E 023°46'4 7.8
2018-Feb-15 10:00N 59°37' E 023°39'4 8.1
2018-Feb-15 09:30N 59°38' E 023°32'4 8.0
2018-Feb-15 09:00N 59°40' E 023°24'4 8.0
2018-Feb-15 08:30N 59°42' E 023°17'4 7.9
2018-Feb-15 07:57N 59°43' E 023°09'7 7.7
2018-Feb-15 07:06N 59°47' E 022°58'96 6.5
2018-Feb-14 16:22N 61°01' E 020°55'3 8.1
2018-Feb-14 16:00N 61°03' E 020°56'4 8.1
2018-Feb-14 15:30N 61°07' E 020°58'4 8.6
2018-Feb-14 15:00N 61°11' E 021°01'  

Dump ship's entire track history